Time;durP1;ratioP1;P1;durP2;ratioP2;P2;SDS_P1;SDS_P2;PMS_P1;PMS_P2;Temp;Humidity;BMP_temperature;BMP_pressure;BME280_temperature;BME280_humidity;BME280_pressure;Samples;Min_cycle;Max_cycle;Signal;HPM_P1;HPM_P2
2022/10/03 00:00:02;;;;;;;5.30;1.57;;;;;;;9.42;100.00;96616.97;4955621;29;24445;-82
2022/10/03 00:02:45;;;;;;;1.35;1.23;;;;;;;9.49;100.00;96633.03;4952804;29;24528;-83
2022/10/03 00:05:29;;;;;;;5.18;1.00;;;;;;;9.37;100.00;96624.06;4959493;29;20742;-82
2022/10/03 00:08:07;;;;;;;3.03;1.00;;;;;;;9.32;100.00;96631.22;4959827;29;20770;-82
2022/10/03 00:10:45;;;;;;;2.72;1.20;;;;;;;9.28;100.00;96636.59;4958475;29;24438;-82
2022/10/03 00:13:25;;;;;;;2.55;1.23;;;;;;;9.15;100.00;96634.50;4959659;29;24812;-83
2022/10/03 00:16:02;;;;;;;1.50;1.40;;;;;;;9.18;100.00;96643.88;4955110;29;24453;-82
2022/10/03 00:18:45;;;;;;;3.65;1.23;;;;;;;9.08;100.00;96648.59;4959127;29;24433;-80
2022/10/03 00:21:33;;;;;;;4.10;1.02;;;;;;;9.16;100.00;96649.13;4959256;29;20727;-80
2022/10/03 00:24:09;;;;;;;6.75;1.17;;;;;;;9.15;100.00;96641.44;4958691;28;20857;-81
2022/10/03 00:26:49;;;;;;;1.02;0.90;;;;;;;9.14;100.00;96639.75;4960168;29;24522;-80
2022/10/03 00:29:34;;;;;;;7.75;1.00;;;;;;;9.28;100.00;96640.00;4958664;29;24460;-80
2022/10/03 00:32:11;;;;;;;6.17;0.90;;;;;;;9.32;100.00;96648.47;4960427;29;20912;-80
2022/10/03 00:34:48;;;;;;;3.75;0.85;;;;;;;9.25;100.00;96653.06;4959579;29;24434;-80
2022/10/03 00:37:27;;;;;;;4.95;1.02;;;;;;;9.19;100.00;96650.72;4959329;29;21291;-80
2022/10/03 00:40:11;;;;;;;8.30;1.13;;;;;;;9.31;100.00;96659.72;4959648;29;24430;-80
2022/10/03 00:43:16;;;;;;;2.90;1.00;;;;;;;9.51;100.00;96662.25;4953671;29;20807;-80
2022/10/03 00:46:10;;;;;;;9.27;1.35;;;;;;;9.70;100.00;96657.94;4954391;29;20664;-80
2022/10/03 00:49:27;;;;;;;2.92;0.98;;;;;;;9.43;100.00;96654.84;4958879;29;20712;-80
2022/10/03 00:52:05;;;;;;;6.15;1.08;;;;;;;9.09;100.00;96659.81;4926662;29;21152;-80
2022/10/03 00:54:54;;;;;;;10.50;0.90;;;;;;;9.18;100.00;96659.41;4959029;29;21247;-80
2022/10/03 00:57:38;;;;;;;9.73;1.15;;;;;;;9.03;100.00;96667.81;4950399;29;21062;-80
2022/10/03 01:00:16;;;;;;;6.73;1.20;;;;;;;8.81;100.00;96658.38;4958416;29;20794;-80
2022/10/03 01:03:15;;;;;;;8.15;0.90;;;;;;;9.07;100.00;96664.19;4956617;29;20697;-81
2022/10/03 01:05:56;;;;;;;6.60;0.82;;;;;;;8.96;100.00;96665.47;4939367;28;21362;-81
2022/10/03 01:08:51;;;;;;;10.18;0.82;;;;;;;8.77;100.00;96658.56;4959031;29;20673;-81
2022/10/03 01:11:35;;;;;;;4.20;0.70;;;;;;;9.04;100.00;96659.97;4925901;29;21059;-81
2022/10/03 01:14:18;;;;;;;3.20;0.80;;;;;;;8.89;100.00;96658.88;4957994;29;20810;-79
2022/10/03 01:16:59;;;;;;;5.72;0.60;;;;;;;8.71;100.00;96677.72;4961429;29;20705;-79
2022/10/03 01:19:44;;;;;;;2.10;0.40;;;;;;;8.56;100.00;96680.94;4953945;29;24434;-80
2022/10/03 01:22:30;;;;;;;5.57;0.60;;;;;;;8.60;100.00;96672.16;4961021;29;20660;-79
2022/10/03 01:24:59;;;;;;;1.25;0.63;;;;;;;8.55;100.00;96679.25;4960976;29;20708;-80
2022/10/03 01:30:21;;;;;;;3.80;0.85;;;;;;;8.52;100.00;96675.03;4953761;29;24430;-80
2022/10/03 01:30:29;;;;;;;11.13;1.00;;;;;;;8.54;100.00;96672.41;4961551;29;20759;-79
2022/10/03 01:33:01;;;;;;;6.50;0.80;;;;;;;8.57;100.00;96669.72;4959131;29;20738;-79
2022/10/03 01:35:36;;;;;;;1.17;0.70;;;;;;;8.68;100.00;96678.72;4950971;29;20724;-79
2022/10/03 01:38:19;;;;;;;12.55;1.17;;;;;;;8.55;100.00;96674.94;4961573;29;20747;-80
2022/10/03 01:40:53;;;;;;;20.40;1.35;;;;;;;8.43;100.00;96676.25;4961110;29;21204;-80
2022/10/03 01:43:24;;;;;;;14.20;1.20;;;;;;;8.46;100.00;96686.47;4962940;29;20739;-80
2022/10/03 01:46:07;;;;;;;5.68;1.00;;;;;;;8.57;100.00;96690.38;4963257;29;20716;-80
2022/10/03 01:48:43;;;;;;;7.07;1.13;;;;;;;8.56;100.00;96693.84;4960925;29;20706;-80
2022/10/03 01:51:15;;;;;;;13.57;1.40;;;;;;;8.64;100.00;96694.38;4962483;29;24956;-80
2022/10/03 01:53:57;;;;;;;14.53;1.57;;;;;;;8.71;100.00;96698.38;4956810;29;20709;-80
2022/10/03 01:56:33;;;;;;;6.50;1.25;;;;;;;8.67;100.00;96699.41;4962315;29;20708;-80
2022/10/03 01:59:06;;;;;;;40.70;1.88;;;;;;;8.48;100.00;96705.31;4962368;29;20703;-81
2022/10/03 02:01:43;;;;;;;13.13;1.20;;;;;;;8.59;100.00;96702.31;4963128;29;20671;-80
2022/10/03 02:04:15;;;;;;;6.05;1.10;;;;;;;8.69;100.00;96698.47;4962530;29;21148;-80
2022/10/03 02:06:52;;;;;;;16.77;1.40;;;;;;;8.60;100.00;96695.38;4962493;29;20758;-80
2022/10/03 02:09:28;;;;;;;26.73;1.33;;;;;;;8.55;100.00;96703.31;4962907;29;20713;-80
2022/10/03 02:12:08;;;;;;;9.93;1.10;;;;;;;8.73;100.00;96706.91;4962994;29;20665;-80
2022/10/03 02:14:45;;;;;;;9.60;0.80;;;;;;;8.90;100.00;96698.50;4957661;29;21021;-80
2022/10/03 02:17:27;;;;;;;9.57;0.80;;;;;;;8.77;100.00;96698.16;4962420;29;20751;-80
2022/10/03 02:20:01;;;;;;;5.80;0.93;;;;;;;8.78;100.00;96696.41;4962686;29;20683;-80
2022/10/03 02:22:32;;;;;;;11.30;1.10;;;;;;;8.81;100.00;96699.69;4958404;29;20784;-80
2022/10/03 02:25:11;;;;;;;4.80;0.77;;;;;;;8.91;100.00;96698.41;4960001;29;20777;-80
2022/10/03 02:28:14;;;;;;;11.05;0.85;;;;;;;9.02;100.00;96712.66;4962297;29;21207;-80
2022/10/03 02:30:55;;;;;;;19.45;0.90;;;;;;;8.65;100.00;96714.16;4958194;29;24784;-80
2022/10/03 02:33:44;;;;;;;7.97;0.90;;;;;;;8.51;100.00;96711.25;4962323;29;20690;-80
2022/10/03 02:36:42;;;;;;;8.53;0.83;;;;;;;8.40;100.00;96709.94;4962430;29;20782;-80
2022/10/03 02:39:39;;;;;;;9.20;0.85;;;;;;;8.40;100.00;96704.78;4961833;29;25070;-79
2022/10/03 02:42:32;;;;;;;9.10;0.80;;;;;;;8.43;100.00;96712.41;4960070;29;20660;-79
2022/10/03 02:45:34;;;;;;;10.13;0.90;;;;;;;8.45;100.00;96714.91;4962066;29;20666;-79
2022/10/03 02:48:49;;;;;;;0.95;0.70;;;;;;;8.38;100.00;96716.91;4955154;29;20689;-80
2022/10/03 02:51:48;;;;;;;1.40;0.75;;;;;;;8.52;100.00;96711.19;4958816;29;20697;-80
2022/10/03 02:54:53;;;;;;;5.70;0.70;;;;;;;8.62;100.00;96709.09;4956835;29;20678;-80
2022/10/03 02:58:06;;;;;;;3.10;0.80;;;;;;;8.44;100.00;96705.50;4952172;29;20719;-80
2022/10/03 03:00:47;;;;;;;4.82;0.88;;;;;;;8.56;100.00;96702.41;4950470;29;20711;-80
2022/10/03 03:03:46;;;;;;;1.00;0.90;;;;;;;8.46;100.00;96704.53;4952775;29;21034;-80
2022/10/03 03:07:04;;;;;;;5.88;1.00;;;;;;;8.31;100.00;96704.28;4949147;28;20802;-80
2022/10/03 03:10:19;;;;;;;2.92;1.40;;;;;;;8.30;100.00;96700.84;4871275;29;20712;-80
2022/10/03 03:13:03;;;;;;;5.20;1.02;;;;;;;8.32;100.00;96693.88;4827831;29;20677;-80
2022/10/03 03:16:16;;;;;;;6.63;1.08;;;;;;;8.37;100.00;96697.16;4945252;29;20679;-79
2022/10/03 03:18:52;;;;;;;30.15;1.83;;;;;;;8.37;100.00;96691.13;4952093;29;20671;-79
2022/10/03 03:21:28;;;;;;;31.05;1.42;;;;;;;8.02;100.00;96692.50;4952533;29;20630;-79
2022/10/03 03:24:08;;;;;;;1.92;0.70;;;;;;;7.96;100.00;96693.53;4948945;29;20639;-79
2022/10/03 03:26:53;;;;;;;1.73;0.70;;;;;;;8.11;100.00;96694.72;4951850;29;20713;-79
2022/10/03 03:29:31;;;;;;;14.77;0.90;;;;;;;7.92;100.00;96692.81;4952285;29;24473;-79
2022/10/03 03:32:05;;;;;;;3.03;0.60;;;;;;;7.99;100.00;96694.28;4952442;29;20684;-79
2022/10/03 03:34:43;;;;;;;8.95;0.93;;;;;;;8.01;100.00;96691.66;4948820;29;21041;-79
2022/10/03 03:37:15;;;;;;;25.97;1.10;;;;;;;7.87;100.00;96696.47;4952528;29;20822;-79
2022/10/03 03:39:57;;;;;;;8.47;0.80;;;;;;;7.91;100.00;96691.16;4952082;29;20657;-79
2022/10/03 03:42:46;;;;;;;7.03;0.70;;;;;;;7.99;100.00;96685.69;4952411;29;21013;-79
2022/10/03 03:45:37;;;;;;;19.13;0.95;;;;;;;8.09;100.00;96686.19;4950126;29;20687;-79
2022/10/03 03:48:17;;;;;;;40.78;1.45;;;;;;;7.94;100.00;96696.19;4951791;29;20669;-79
2022/10/03 03:51:01;;;;;;;28.67;1.20;;;;;;;7.96;100.00;96696.97;4951872;29;20779;-79
2022/10/03 03:54:00;;;;;;;18.75;1.05;;;;;;;8.05;100.00;96698.38;4952079;29;20661;-80
2022/10/03 03:57:00;;;;;;;15.18;0.93;;;;;;;8.10;100.00;96704.19;4950624;29;20676;-80
2022/10/03 03:59:43;;;;;;;30.27;1.30;;;;;;;7.93;100.00;96707.38;4947744;29;20661;-80
2022/10/03 04:02:20;;;;;;;17.10;0.93;;;;;;;7.96;100.00;96704.69;4952230;29;20666;-80
2022/10/03 04:05:03;;;;;;;25.93;1.30;;;;;;;7.92;100.00;96699.72;4951916;29;21294;-80
2022/10/03 04:07:47;;;;;;;8.32;0.77;;;;;;;7.94;100.00;96698.78;4951944;29;20814;-80
2022/10/03 04:10:25;;;;;;;7.63;1.00;;;;;;;7.98;100.00;96702.09;4951906;29;20714;-80
2022/10/03 04:13:11;;;;;;;1.67;1.08;;;;;;;7.99;100.00;96702.00;4951787;29;24515;-80
2022/10/03 04:15:54;;;;;;;2.30;0.90;;;;;;;8.03;100.00;96707.06;4944852;29;20676;-80
2022/10/03 04:18:56;;;;;;;24.85;1.30;;;;;;;7.89;100.00;96713.56;4951800;29;20673;-80
2022/10/03 04:21:39;;;;;;;38.35;1.67;;;;;;;7.76;100.00;96713.19;4951781;29;20668;-80
2022/10/03 04:24:31;;;;;;;9.98;0.80;;;;;;;7.85;100.00;96704.25;4959456;29;20643;-80
2022/10/03 04:27:12;;;;;;;15.98;1.15;;;;;;;7.81;100.00;96704.44;4958240;29;20693;-80
2022/10/03 04:29:47;;;;;;;25.67;1.50;;;;;;;7.68;100.00;96711.78;4960156;29;20676;-81
2022/10/03 04:32:26;;;;;;;17.83;1.10;;;;;;;7.75;100.00;96721.84;4961619;29;20646;-81
2022/10/03 04:35:14;;;;;;;50.03;1.73;;;;;;;7.68;100.00;96716.94;4959229;29;24456;-81
2022/10/03 04:37:47;;;;;;;12.98;0.82;;;;;;;7.70;100.00;96725.47;4958255;29;21340;-81
2022/10/03 04:40:31;;;;;;;52.20;1.60;;;;;;;7.71;100.00;96727.13;4946035;29;24479;-81
2022/10/03 04:43:08;;;;;;;34.03;1.60;;;;;;;7.69;100.00;96727.19;4957556;29;20655;-81
2022/10/03 04:45:48;;;;;;;26.10;1.80;;;;;;;7.57;100.00;96737.13;4950882;29;20814;-80
2022/10/03 04:48:22;;;;;;;19.27;1.20;;;;;;;7.69;100.00;96732.34;4956137;29;20702;-81
2022/10/03 04:51:00;;;;;;;54.65;2.30;;;;;;;7.46;100.00;96733.19;4957110;29;20768;-81
2022/10/03 04:53:41;;;;;;;12.30;1.23;;;;;;;7.51;100.00;96738.16;4946760;29;20710;-81
2022/10/03 04:56:26;;;;;;;20.17;1.40;;;;;;;7.51;100.00;96741.56;4995185;23;20784;-71
2022/10/03 04:59:03;;;;;;;12.90;1.35;;;;;;;7.68;100.00;96745.31;4994738;28;20667;-72
2022/10/03 05:01:39;;;;;;;19.52;1.55;;;;;;;7.76;100.00;96735.56;4981110;28;20679;-72
2022/10/03 05:04:19;;;;;;;16.17;1.38;;;;;;;7.84;100.00;96736.13;4985965;28;20708;-72
2022/10/03 05:06:57;;;;;;;10.48;1.13;;;;;;;7.80;100.00;96744.03;4981475;28;20690;-72
2022/10/03 05:09:31;;;;;;;9.82;1.27;;;;;;;7.85;100.00;96747.28;4985823;28;21316;-72
2022/10/03 05:12:07;;;;;;;5.10;1.20;;;;;;;7.89;100.00;96743.69;4988725;28;20854;-72
2022/10/03 05:14:52;;;;;;;3.83;1.48;;;;;;;7.87;100.00;96745.50;4983598;28;20670;-72
2022/10/03 05:17:25;;;;;;;16.42;9.88;;;;;;;7.61;100.00;96744.69;4986132;28;21142;-72
2022/10/03 05:20:20;;;;;;;8.82;4.38;;;;;;;7.74;100.00;96745.06;4992527;28;20701;-72
2022/10/03 05:22:55;;;;;;;7.80;2.45;;;;;;;7.55;100.00;96747.47;4980617;28;21142;-72
2022/10/03 05:25:38;;;;;;;6.53;2.60;;;;;;;7.66;100.00;96755.66;4983998;28;20715;-72
2022/10/03 05:28:15;;;;;;;8.90;3.72;;;;;;;7.51;100.00;96758.78;4985481;28;20756;-71
2022/10/03 05:30:48;;;;;;;25.58;7.85;;;;;;;7.42;100.00;96759.97;4984499;28;20782;-71
2022/10/03 05:33:25;;;;;;;7.15;4.68;;;;;;;7.52;100.00;96766.44;4980409;28;20693;-72
2022/10/03 05:36:06;;;;;;;18.13;2.57;;;;;;;7.56;100.00;96768.94;4985850;28;20895;-72
2022/10/03 05:39:15;;;;;;;11.23;4.07;;;;;;;7.46;100.00;96771.84;4975638;28;21209;-72
2022/10/03 05:41:52;;;;;;;10.57;2.92;;;;;;;7.52;100.00;96784.50;4981414;28;20672;-72
2022/10/03 05:44:22;;;;;;;3.13;1.98;;;;;;;7.65;100.00;96784.09;4971055;28;24445;-72
2022/10/03 05:46:58;;;;;;;5.18;1.88;;;;;;;7.61;100.00;96785.09;4968064;28;20724;-72
2022/10/03 05:49:52;;;;;;;8.30;1.90;;;;;;;7.54;100.00;96791.34;4982970;28;20759;-72
2022/10/03 05:52:49;;;;;;;3.20;1.83;;;;;;;7.63;100.00;96786.72;4979932;28;20840;-72
2022/10/03 05:55:43;;;;;;;2.93;2.50;;;;;;;7.66;100.00;96786.59;4986187;28;21295;-72
2022/10/03 05:58:36;;;;;;;5.85;4.40;;;;;;;7.80;100.00;96783.56;4977067;28;21621;-72
2022/10/03 06:01:27;;;;;;;6.40;4.68;;;;;;;7.84;100.00;96789.44;4975062;28;21293;-72
2022/10/03 06:04:22;;;;;;;4.90;3.45;;;;;;;7.89;100.00;96795.25;4974569;28;21029;-72
2022/10/03 06:07:03;;;;;;;6.47;3.47;;;;;;;7.98;100.00;96789.78;4974384;28;20696;-72
2022/10/03 06:10:11;;;;;;;3.65;2.83;;;;;;;8.03;100.00;96792.19;4978092;28;20719;-72
2022/10/03 06:12:46;;;;;;;4.63;2.97;;;;;;;8.07;100.00;96789.44;4979551;28;21092;-72
2022/10/03 06:15:48;;;;;;;7.85;3.10;;;;;;;8.11;100.00;96795.34;4983973;28;20798;-72
2022/10/03 06:18:41;;;;;;;5.70;3.63;;;;;;;8.08;100.00;96801.44;4984170;28;20779;-72
2022/10/03 06:21:32;;;;;;;7.28;3.45;;;;;;;8.13;100.00;96798.72;4984563;28;20775;-72
2022/10/03 06:24:25;;;;;;;5.18;3.65;;;;;;;8.14;100.00;96793.47;4990147;28;20660;-72
2022/10/03 06:27:42;;;;;;;3.92;3.22;;;;;;;8.22;100.00;96800.94;4987824;28;20747;-72
2022/10/03 06:30:21;;;;;;;4.20;3.40;;;;;;;8.24;100.00;96799.16;4973721;28;20839;-72
2022/10/03 06:33:26;;;;;;;5.88;4.10;;;;;;;8.25;100.00;96801.66;4972081;28;20796;-72
2022/10/03 06:36:21;;;;;;;4.45;3.95;;;;;;;8.35;100.00;96807.34;4972322;28;24799;-72
2022/10/03 06:39:33;;;;;;;5.63;4.43;;;;;;;8.35;100.00;96812.50;4976514;28;20826;-72
2022/10/03 06:42:24;;;;;;;4.97;3.92;;;;;;;8.44;100.00;96819.09;4964982;28;20695;-72
2022/10/03 06:45:37;;;;;;;7.38;4.65;;;;;;;8.61;100.00;96814.13;4979893;28;24445;-72
2022/10/03 06:48:28;;;;;;;6.10;4.25;;;;;;;8.58;100.00;96823.75;4900343;29;20804;-72
2022/10/03 06:51:16;;;;;;;6.05;4.95;;;;;;;8.62;100.00;96823.56;4902255;29;20938;-73
2022/10/03 06:54:10;;;;;;;9.70;4.50;;;;;;;8.70;100.00;96828.41;4944867;28;24441;-72
2022/10/03 06:57:01;;;;;;;7.28;4.43;;;;;;;8.73;100.00;96836.06;4980058;28;24463;-73
2022/10/03 06:59:49;;;;;;;6.43;4.68;;;;;;;8.61;100.00;96841.69;4975961;28;24430;-72
2022/10/03 07:02:41;;;;;;;7.82;4.72;;;;;;;8.52;100.00;96837.69;4975856;28;24441;-72
2022/10/03 07:05:56;;;;;;;7.68;4.90;;;;;;;8.43;100.00;96838.06;4969420;28;24452;-73
2022/10/03 07:09:13;;;;;;;5.30;4.50;;;;;;;8.60;100.00;96830.53;4934811;28;24504;-73
2022/10/03 07:12:05;;;;;;;7.05;4.80;;;;;;;8.72;100.00;96834.38;4969601;28;24456;-72
2022/10/03 07:15:05;;;;;;;6.47;5.00;;;;;;;8.81;100.00;96838.34;4956519;28;24706;-73
2022/10/03 07:17:59;;;;;;;7.18;5.57;;;;;;;8.84;100.00;96849.41;4965873;28;24426;-73
2022/10/03 07:20:49;;;;;;;6.40;4.90;;;;;;;8.91;100.00;96835.34;4971104;28;24441;-71
2022/10/03 07:24:01;;;;;;;9.82;5.78;;;;;;;9.10;100.00;96845.78;4977101;28;24433;-72
2022/10/03 07:27:02;;;;;;;6.43;4.95;;;;;;;9.02;100.00;96845.25;4956545;28;20796;-73
2022/10/03 07:29:43;;;;;;;7.50;5.40;;;;;;;9.00;100.00;96852.22;4945940;28;24455;-72
2022/10/03 07:32:44;;;;;;;6.30;5.28;;;;;;;9.08;100.00;96845.00;4981239;28;24447;-72
2022/10/03 07:38:59;;;;;;;8.90;5.80;;;;;;;9.07;100.00;96852.81;4987432;28;24456;-74
2022/10/03 07:41:42;;;;;;;7.28;5.57;;;;;;;9.12;100.00;96854.34;4894056;29;24453;-72
2022/10/03 07:44:41;;;;;;;6.88;5.50;;;;;;;9.19;100.00;96850.59;4980506;28;24448;-72
2022/10/03 07:47:32;;;;;;;5.88;5.20;;;;;;;9.23;100.00;96853.06;4983083;28;20818;-72
2022/10/03 07:50:30;;;;;;;8.20;5.43;;;;;;;9.21;100.00;96861.72;4967974;28;24825;-70
2022/10/03 07:53:10;;;;;;;8.63;6.03;;;;;;;9.16;100.00;96865.41;4955274;28;24966;-72
2022/10/03 07:55:59;;;;;;;6.85;5.15;;;;;;;9.23;100.00;96863.38;4981654;28;24448;-72
2022/10/03 07:58:50;;;;;;;6.75;5.88;;;;;;;9.24;100.00;96852.16;4974245;28;24970;-72
2022/10/03 08:01:38;;;;;;;9.77;5.45;;;;;;;9.26;100.00;96860.69;4990957;28;20802;-73
2022/10/03 08:04:29;;;;;;;7.07;6.00;;;;;;;9.21;100.00;96859.13;4977990;28;24441;-73
2022/10/03 08:07:15;;;;;;;7.95;5.70;;;;;;;9.32;100.00;96857.88;4989542;28;24432;-72
2022/10/03 08:09:56;;;;;;;7.88;6.25;;;;;;;9.25;100.00;96861.59;4976979;28;24457;-72
2022/10/03 08:13:01;;;;;;;9.63;6.65;;;;;;;9.28;100.00;96866.66;4984415;28;24445;-72
2022/10/03 08:15:35;;;;;;;8.48;5.63;;;;;;;9.42;100.00;96865.19;4970325;28;24577;-73
2022/10/03 08:18:27;;;;;;;7.55;5.47;;;;;;;9.50;100.00;96871.78;4973888;28;24456;-71
2022/10/03 08:20:56;;;;;;;7.30;6.07;;;;;;;9.52;100.00;96868.22;4988981;28;24428;-72
2022/10/03 08:24:05;;;;;;;10.10;5.35;;;;;;;9.66;100.00;96870.25;4983594;28;24437;-72
2022/10/03 08:26:52;;;;;;;6.57;5.78;;;;;;;9.79;100.00;96863.66;4972554;28;24437;-72
2022/10/03 08:29:49;;;;;;;8.77;6.07;;;;;;;9.83;100.00;96865.22;4984931;28;24565;-71
2022/10/03 08:32:45;;;;;;;7.97;5.50;;;;;;;9.93;100.00;96863.06;4976852;28;24446;-72
2022/10/03 08:35:28;;;;;;;9.23;6.87;;;;;;;9.91;100.00;96865.72;4989247;28;20825;-72
2022/10/03 08:38:22;;;;;;;7.85;6.35;;;;;;;10.04;100.00;96872.97;4979174;28;24500;-72
2022/10/03 08:41:34;;;;;;;9.13;6.63;;;;;;;9.90;100.00;96868.38;4981840;28;24436;-71
2022/10/03 08:44:47;;;;;;;8.85;6.65;;;;;;;10.05;100.00;96864.28;4979472;28;24448;-72
2022/10/03 08:47:41;;;;;;;9.60;7.53;;;;;;;10.13;100.00;96872.56;4979970;28;24439;-72
2022/10/03 08:50:35;;;;;;;11.23;7.60;;;;;;;10.21;100.00;96867.91;4986658;28;24560;-72
2022/10/03 08:53:26;;;;;;;10.45;7.35;;;;;;;10.26;100.00;96875.50;4987925;28;24524;-72
2022/10/03 08:56:00;;;;;;;14.68;8.77;;;;;;;10.12;100.00;96871.75;4979856;28;24444;-72
2022/10/03 08:59:00;;;;;;;10.93;7.97;;;;;;;9.99;100.00;96880.09;4977522;28;24445;-72
2022/10/03 09:01:42;;;;;;;10.63;8.30;;;;;;;10.15;100.00;96875.91;4967439;28;24481;-71
2022/10/03 09:04:41;;;;;;;12.93;7.80;;;;;;;10.35;100.00;96875.94;4980341;28;24436;-72
2022/10/03 09:07:21;;;;;;;12.60;7.30;;;;;;;10.45;100.00;96873.75;4986127;28;24428;-71
2022/10/03 09:10:22;;;;;;;12.82;8.70;;;;;;;10.44;100.00;96879.03;4978729;28;24450;-72
2022/10/03 09:13:20;;;;;;;10.07;8.07;;;;;;;10.51;100.00;96883.03;4979517;28;24448;-71
2022/10/03 09:16:23;;;;;;;10.05;8.40;;;;;;;10.47;100.00;96874.53;4979735;28;24471;-72
2022/10/03 09:19:05;;;;;;;12.00;7.72;;;;;;;10.48;100.00;96870.19;4984690;28;24443;-72
2022/10/03 09:22:09;;;;;;;9.23;7.10;;;;;;;10.57;100.00;96875.81;4963519;28;25030;-71
2022/10/03 09:25:07;;;;;;;9.23;7.63;;;;;;;10.58;100.00;96874.06;4973385;28;24437;-72
2022/10/03 09:28:02;;;;;;;11.07;7.97;;;;;;;10.58;100.00;96876.66;4972935;28;24517;-71
2022/10/03 09:30:50;;;;;;;10.50;7.65;;;;;;;10.54;100.00;96872.53;4980250;28;24459;-72
2022/10/03 09:33:54;;;;;;;13.80;8.20;;;;;;;10.59;100.00;96867.97;4984221;28;24433;-72
2022/10/03 09:37:05;;;;;;;15.35;8.43;;;;;;;10.73;100.00;96872.53;4977352;28;24491;-71
2022/10/03 09:40:07;;;;;;;9.77;7.82;;;;;;;10.80;100.00;96871.34;4913973;28;24981;-72
2022/10/03 09:43:03;;;;;;;16.45;8.07;;;;;;;10.71;100.00;96872.59;4980044;28;25328;-72
2022/10/03 09:45:59;;;;;;;10.30;7.35;;;;;;;10.84;100.00;96872.88;4985681;28;24444;-72
2022/10/03 09:48:40;;;;;;;10.60;8.20;;;;;;;10.98;100.00;96875.66;4978279;28;24854;-72
2022/10/03 09:51:36;;;;;;;10.35;7.80;;;;;;;10.86;100.00;96871.91;4981188;28;24449;-71
2022/10/03 09:54:42;;;;;;;11.90;7.13;;;;;;;10.78;100.00;96871.38;4939848;28;24452;-72
2022/10/03 09:57:48;;;;;;;10.48;6.72;;;;;;;10.83;100.00;96871.22;4952540;28;24467;-72
2022/10/03 10:00:24;;;;;;;13.85;7.47;;;;;;;10.88;100.00;96869.22;4990915;28;24455;-72
2022/10/03 10:03:25;;;;;;;12.10;7.43;;;;;;;10.94;100.00;96875.88;4985437;28;24532;-73
2022/10/03 10:06:16;;;;;;;11.65;7.35;;;;;;;10.77;100.00;96874.91;4989052;28;24444;-72
2022/10/03 10:09:21;;;;;;;12.05;7.13;;;;;;;11.40;100.00;96869.34;4987282;28;24439;-71
2022/10/03 10:12:24;;;;;;;11.77;6.60;;;;;;;11.94;100.00;96864.97;4982063;28;24477;-72
2022/10/03 10:15:17;;;;;;;12.07;7.00;;;;;;;12.44;100.00;96866.69;4986541;28;24428;-72
2022/10/03 10:18:16;;;;;;;10.38;6.03;;;;;;;12.53;100.00;96865.38;4982736;28;24444;-73
2022/10/03 10:21:29;;;;;;;10.00;5.95;;;;;;;12.38;100.00;96872.22;4977773;28;24437;-73
2022/10/03 10:24:15;;;;;;;13.07;5.93;;;;;;;12.27;100.00;96874.53;4972098;28;24437;-72
2022/10/03 10:27:19;;;;;;;9.02;5.45;;;;;;;12.66;100.00;96878.56;4976625;28;24448;-72
2022/10/03 10:30:20;;;;;;;7.18;4.40;;;;;;;12.82;100.00;96872.44;4979854;28;25018;-71
2022/10/03 10:33:13;;;;;;;14.68;5.55;;;;;;;13.08;100.00;96875.38;4982212;28;24429;-72
2022/10/03 10:36:24;;;;;;;13.20;4.70;;;;;;;12.86;100.00;96872.28;4979082;28;24803;-72
2022/10/03 10:39:39;;;;;;;8.85;4.65;;;;;;;13.21;100.00;96866.00;4929570;28;24456;-72
2022/10/03 10:42:53;;;;;;;8.17;4.33;;;;;;;13.12;100.00;96873.44;4987522;28;25129;-72
2022/10/03 10:45:47;;;;;;;9.75;4.70;;;;;;;12.87;100.00;96860.94;4986233;28;24445;-71
2022/10/03 10:48:52;;;;;;;9.93;4.53;;;;;;;13.18;100.00;96862.72;4990315;28;24460;-72
2022/10/03 10:51:49;;;;;;;15.80;5.18;;;;;;;13.40;100.00;96858.00;4989223;28;24460;-72
2022/10/03 10:55:03;;;;;;;8.85;4.30;;;;;;;13.66;100.00;96847.88;4985367;28;24429;-72
2022/10/03 10:58:05;;;;;;;11.52;4.70;;;;;;;13.75;100.00;96848.16;4977654;28;24440;-72
2022/10/03 11:00:53;;;;;;;9.82;4.75;;;;;;;13.89;100.00;96852.56;4993874;28;24429;-71
2022/10/03 11:04:05;;;;;;;10.02;5.13;;;;;;;13.89;100.00;96849.13;4989147;28;24791;-72
2022/10/03 11:07:10;;;;;;;11.52;6.07;;;;;;;13.66;100.00;96842.66;4977712;28;24448;-71
2022/10/03 11:09:51;;;;;;;7.50;5.05;;;;;;;13.69;100.00;96843.34;4939106;28;24437;-72
2022/10/03 11:12:57;;;;;;;10.68;5.50;;;;;;;13.66;100.00;96855.69;4988746;28;24456;-72
2022/10/03 11:15:54;;;;;;;10.57;5.50;;;;;;;13.43;100.00;96855.25;4982829;28;24481;-72
2022/10/03 11:19:09;;;;;;;10.45;4.80;;;;;;;13.49;100.00;96847.06;4988575;28;24436;-72
2022/10/03 11:22:17;;;;;;;11.03;4.60;;;;;;;13.10;100.00;96849.31;4990695;28;24428;-71
2022/10/03 11:25:17;;;;;;;11.27;4.47;;;;;;;13.03;100.00;96854.00;4965041;28;24970;-72
2022/10/03 11:28:31;;;;;;;10.52;3.90;;;;;;;12.88;100.00;96845.28;4980253;28;24436;-72
2022/10/03 11:31:33;;;;;;;8.18;4.68;;;;;;;12.67;100.00;96852.47;4982636;28;24459;-71
2022/10/03 11:34:44;;;;;;;9.57;5.00;;;;;;;12.50;100.00;96850.78;4983453;28;25054;-71
2022/10/03 11:37:32;;;;;;;8.73;4.47;;;;;;;12.32;100.00;96855.19;4989760;28;24429;-72
2022/10/03 11:40:13;;;;;;;6.32;4.25;;;;;;;12.28;100.00;96858.88;4984380;28;25038;-72
2022/10/03 11:42:53;;;;;;;8.23;4.15;;;;;;;12.14;100.00;96855.31;4979486;28;24483;-71
2022/10/03 11:45:28;;;;;;;8.52;4.40;;;;;;;12.05;100.00;96852.28;4987368;28;24448;-72
2022/10/03 11:48:13;;;;;;;15.52;4.53;;;;;;;12.25;100.00;96853.00;4990403;28;24433;-71
2022/10/03 11:50:48;;;;;;;9.38;4.70;;;;;;;12.11;100.00;96845.91;4989438;28;24595;-72
2022/10/03 11:53:36;;;;;;;9.07;4.80;;;;;;;12.09;100.00;96839.97;4983353;28;24436;-72
2022/10/03 11:56:25;;;;;;;8.40;4.00;;;;;;;12.21;100.00;96846.28;4983965;28;24441;-72
2022/10/03 11:59:02;;;;;;;6.82;4.00;;;;;;;12.45;100.00;96836.34;4987839;28;24441;-72
2022/10/03 12:01:46;;;;;;;8.45;4.38;;;;;;;12.53;100.00;96841.97;4973470;28;24795;-72
2022/10/03 12:04:23;;;;;;;11.90;5.15;;;;;;;12.76;100.00;96840.75;4985570;28;25024;-72
2022/10/03 12:09:56;;;;;;;6.88;4.35;;;;;;;12.97;100.00;96836.13;4979421;28;24436;-72
2022/10/03 12:12:34;;;;;;;7.97;4.63;;;;;;;13.78;100.00;96826.31;4985456;28;24460;-72
2022/10/03 12:15:12;;;;;;;6.43;3.92;;;;;;;13.40;100.00;96829.38;4985490;28;24540;-72
2022/10/03 12:17:48;;;;;;;6.03;3.58;;;;;;;13.42;100.00;96821.47;4986351;28;24440;-72
2022/10/03 12:20:22;;;;;;;8.27;3.72;;;;;;;13.24;100.00;96833.81;4988400;28;24451;-71
2022/10/03 12:22:52;;;;;;;7.13;3.53;;;;;;;13.07;100.00;96832.09;4986630;28;24969;-72
2022/10/03 12:25:22;;;;;;;9.82;3.92;;;;;;;13.44;100.00;96824.84;4988816;28;24803;-72
2022/10/03 12:28:06;;;;;;;6.82;3.80;;;;;;;13.51;100.00;96821.81;4986569;28;25084;-72
2022/10/03 12:30:45;;;;;;;10.00;3.80;;;;;;;13.48;100.00;96828.94;4976303;28;24436;-72
2022/10/03 12:33:26;;;;;;;7.27;3.83;;;;;;;13.65;100.00;96815.81;4985604;28;24443;-72
2022/10/03 12:36:02;;;;;;;9.43;3.90;;;;;;;13.54;100.00;96802.59;4989623;28;24473;-72
2022/10/03 12:38:45;;;;;;;7.82;4.55;;;;;;;13.72;100.00;96806.72;4984013;28;24461;-72
2022/10/03 12:41:25;;;;;;;8.07;4.13;;;;;;;13.49;100.00;96802.00;4986168;28;24974;-72
2022/10/03 12:44:13;;;;;;;8.77;4.47;;;;;;;13.03;100.00;96800.22;4974127;28;24978;-72
2022/10/03 12:46:46;;;;;;;6.57;3.78;;;;;;;13.05;100.00;96794.91;4979442;28;24944;-72
2022/10/03 12:49:19;;;;;;;9.10;4.22;;;;;;;12.89;100.00;96797.56;4976664;28;24438;-75
2022/10/03 12:51:55;;;;;;;7.45;3.70;;;;;;;12.97;100.00;96800.56;4986718;28;24500;-72
2022/10/03 12:54:39;;;;;;;13.50;4.32;;;;;;;12.95;100.00;96799.00;4987403;28;24444;-72
2022/10/03 12:57:40;;;;;;;8.63;3.83;;;;;;;13.27;100.00;96794.56;4980745;28;24444;-72
2022/10/03 13:00:17;;;;;;;8.68;4.47;;;;;;;13.24;100.00;96795.63;4973521;28;24429;-72
2022/10/03 13:03:00;;;;;;;11.43;4.70;;;;;;;13.37;100.00;96792.31;4973417;28;24486;-72
2022/10/03 13:05:42;;;;;;;8.50;4.05;;;;;;;13.25;100.00;96796.44;4971888;28;24838;-72
2022/10/03 13:08:26;;;;;;;11.32;4.75;;;;;;;13.26;100.00;96792.91;4973089;28;25034;-72
2022/10/03 13:10:56;;;;;;;13.85;4.60;;;;;;;13.65;100.00;96794.97;4977106;28;24463;-73